Main page
METAR-TAF:

METAR-TAF

Airports :

Menorca Airport

Minorca, Spain

latitude: 39-52N, longitude: 004-14E, elevation: 87 m

Current weather observation

The report was made 32 minutes ago, at 19:30 UTC
Wind 7 kt from the North
Temperature 8°C
Humidity 71%
Pressure 1026 hPa
Visibility 10 km or more
Few clouds at a height of 4500 ft

METAR: LEMH 211930Z 36007KT 9999 FEW045 08/03 Q1026

Time: 21:02 (20:02 UTC)

Forecast

The report was made 6 hours and 2 minutes ago, at 14:00 UTC
Forecast valid from 21 at 15 UTC to 22 at 15 UTC
Wind 15 kt from the North
Visibility 10 km or more
Scattered clouds at a height of 4000 ft
Temporary
from 21 at 15 UTC to 21 at 17 UTC
Wind 17 kt from the North with gusts up to 27 kt

TAF: LEMH 211400Z 2115/2215 01015KT 9999 SCT040 TX12/2212Z TN03/2206Z TEMPO 2115/2117 36017G27KT

Weather observations and forecasts of more than 4000 airports (METAR and TAF reports).

The available stations are represented by yellow and red dots on the map.

Hover mouse over dot to see the name of the station.

Then click to see weather observations and forecasts.

To change the map : click on the green buttons with a black cross to zoom in, on the green button with a dash to zoom out, or on the green arrows for adjacent maps.


METAR-TAF: